createdAt,value
2022-09-17T00:00:06.268Z,10.95
2022-09-17T00:01:06.265Z,10.93
2022-09-17T00:02:06.315Z,10.95
2022-09-17T00:03:06.317Z,10.90
2022-09-17T00:04:06.975Z,10.85
2022-09-17T00:05:06.255Z,10.73
2022-09-17T00:06:06.234Z,10.65
2022-09-17T00:07:06.229Z,10.64
2022-09-17T00:08:06.341Z,10.60
2022-09-17T00:09:06.279Z,10.54
2022-09-17T00:10:06.654Z,10.52
2022-09-17T00:11:06.193Z,10.55
2022-09-17T00:12:06.185Z,10.48
2022-09-17T00:13:06.187Z,10.42
2022-09-17T00:14:06.171Z,10.57
2022-09-17T00:15:06.174Z,10.46
2022-09-17T00:16:06.591Z,10.43
2022-09-17T00:17:06.171Z,10.43
2022-09-17T00:18:06.161Z,10.41
2022-09-17T00:19:06.206Z,10.43
2022-09-17T00:20:06.132Z,10.36
2022-09-17T00:21:06.362Z,10.42
2022-09-17T00:22:06.140Z,10.46
2022-09-17T00:23:06.114Z,10.34
2022-09-17T00:24:06.303Z,10.36
2022-09-17T00:25:06.106Z,10.35
2022-09-17T00:26:06.088Z,10.34
2022-09-17T00:27:06.104Z,10.35
2022-09-17T00:28:06.079Z,10.38
2022-09-17T00:29:06.088Z,10.39
2022-09-17T00:30:06.062Z,10.45
2022-09-17T00:31:06.102Z,10.36
2022-09-17T00:32:06.043Z,10.42
2022-09-17T00:33:06.056Z,10.43
2022-09-17T00:34:06.029Z,10.39
2022-09-17T00:35:06.507Z,10.35
2022-09-17T00:36:06.018Z,10.39
2022-09-17T00:37:06.004Z,10.35
2022-09-17T00:38:05.995Z,10.38
2022-09-17T00:39:06.557Z,10.39
2022-09-17T00:40:06.177Z,10.35
2022-09-17T00:41:05.974Z,10.41
2022-09-17T00:42:05.982Z,10.46
2022-09-17T00:43:05.960Z,10.36
2022-09-17T00:44:05.955Z,10.34
2022-09-17T00:45:06.019Z,10.34
2022-09-17T00:46:06.437Z,10.28
2022-09-17T00:47:05.973Z,10.28
2022-09-17T00:48:05.935Z,10.34
2022-09-17T00:49:05.933Z,10.20
2022-09-17T00:50:05.934Z,10.21
2022-09-17T00:51:05.918Z,10.14
2022-09-17T00:52:05.970Z,10.24
2022-09-17T00:53:05.951Z,10.17
2022-09-17T00:54:05.890Z,10.21
2022-09-17T00:55:05.876Z,10.16
2022-09-17T00:56:05.986Z,10.08
2022-09-17T00:57:05.868Z,10.09
2022-09-17T00:58:06.205Z,10.10
2022-09-17T00:59:05.851Z,10.10
2022-09-17T01:00:05.851Z,10.18
2022-09-17T01:01:05.873Z,10.08
2022-09-17T01:02:06.418Z,10.21
2022-09-17T01:03:05.822Z,10.03
2022-09-17T01:04:05.836Z,10.02
2022-09-17T01:05:05.812Z,10.08
2022-09-17T01:06:05.824Z,10.01
2022-09-17T01:07:06.276Z,10.02
2022-09-17T01:08:05.790Z,10.08
2022-09-17T01:09:05.775Z,9.98
2022-09-17T01:10:05.779Z,10.03
2022-09-17T01:11:06.493Z,10.06
2022-09-17T01:12:05.893Z,10.08
2022-09-17T01:13:05.746Z,10.08
2022-09-17T01:14:05.748Z,10.06
2022-09-17T01:15:05.733Z,10.09
2022-09-17T01:16:05.780Z,10.09
2022-09-17T01:17:06.013Z,10.02
2022-09-17T01:18:05.718Z,10.09
2022-09-17T01:19:05.712Z,10.06
2022-09-17T01:20:05.696Z,10.18
2022-09-17T01:21:05.697Z,10.18
2022-09-17T01:22:05.785Z,10.18
2022-09-17T01:23:05.673Z,10.08
2022-09-17T01:24:05.674Z,10.16
2022-09-17T01:25:05.667Z,10.31
2022-09-17T01:26:05.651Z,10.27
2022-09-17T01:27:05.647Z,10.23
2022-09-17T01:28:06.246Z,10.24
2022-09-17T01:29:05.630Z,10.20
2022-09-17T01:30:05.626Z,10.26
2022-09-17T01:31:05.699Z,10.14
2022-09-17T01:32:05.621Z,10.18
2022-09-17T01:33:05.607Z,10.26
2022-09-17T01:34:05.612Z,10.28
2022-09-17T01:35:05.596Z,10.31
2022-09-17T01:36:05.579Z,10.26
2022-09-17T01:37:05.587Z,10.28
2022-09-17T01:38:05.569Z,10.28
2022-09-17T01:39:05.563Z,10.23
2022-09-17T01:40:05.633Z,10.23
2022-09-17T01:41:05.552Z,10.21
2022-09-17T01:42:06.229Z,10.21
2022-09-17T01:43:05.547Z,10.24
2022-09-17T01:44:05.645Z,10.18
2022-09-17T01:45:05.512Z,10.23
2022-09-17T01:46:05.563Z,10.27
2022-09-17T01:47:05.502Z,10.23
2022-09-17T01:48:05.491Z,10.34
2022-09-17T01:49:05.497Z,10.27
2022-09-17T01:50:05.472Z,10.26
2022-09-17T01:51:06.202Z,10.20
2022-09-17T01:52:05.465Z,10.10
2022-09-17T01:53:05.451Z,10.21
2022-09-17T01:54:05.446Z,10.12
2022-09-17T01:55:05.444Z,10.17
2022-09-17T01:56:05.443Z,10.09
2022-09-17T01:57:05.421Z,10.09
2022-09-17T01:58:05.419Z,10.17
2022-09-17T01:59:05.416Z,10.10
2022-09-17T02:00:05.520Z,10.23
2022-09-17T02:01:06.144Z,10.21
2022-09-17T02:02:05.481Z,10.27
2022-09-17T02:03:05.378Z,10.26
2022-09-17T02:04:05.373Z,10.20
2022-09-17T02:05:05.380Z,10.23
2022-09-17T02:06:05.356Z,10.21
2022-09-17T02:07:05.350Z,10.18
2022-09-17T02:08:05.338Z,10.23
2022-09-17T02:09:05.359Z,10.08
2022-09-17T02:10:06.046Z,10.09
2022-09-17T02:11:05.341Z,10.03
2022-09-17T02:12:05.319Z,10.05
2022-09-17T02:13:05.310Z,10.05
2022-09-17T02:14:05.304Z,10.02
2022-09-17T02:15:05.287Z,10.03
2022-09-17T02:16:05.488Z,10.09
2022-09-17T02:17:05.273Z,10.09
2022-09-17T02:18:05.672Z,10.10
2022-09-17T02:19:05.267Z,10.23
2022-09-17T02:20:05.255Z,10.21
2022-09-17T02:21:05.284Z,10.05
2022-09-17T02:22:05.275Z,10.08
2022-09-17T02:23:05.232Z,10.10
2022-09-17T02:24:05.231Z,10.23
2022-09-17T02:25:05.233Z,10.09
2022-09-17T02:26:05.711Z,10.21
2022-09-17T02:27:05.241Z,10.27
2022-09-17T02:28:05.197Z,10.28
2022-09-17T02:29:05.207Z,10.39
2022-09-17T02:30:05.194Z,10.42
2022-09-17T02:31:05.238Z,10.38
2022-09-17T02:32:05.297Z,10.41
2022-09-17T02:33:06.422Z,10.38
2022-09-17T02:34:05.151Z,10.45
2022-09-17T02:35:05.797Z,10.38
2022-09-17T02:36:05.146Z,10.57
2022-09-17T02:37:05.136Z,10.45
2022-09-17T02:38:05.133Z,10.52
2022-09-17T02:39:05.138Z,10.35
2022-09-17T02:40:05.571Z,10.42
2022-09-17T02:41:05.264Z,10.42
2022-09-17T02:42:05.105Z,10.41
2022-09-17T02:43:05.086Z,10.48
2022-09-17T02:44:05.082Z,10.43
2022-09-17T02:45:05.069Z,10.38
2022-09-17T02:46:05.086Z,10.36
2022-09-17T02:47:05.074Z,10.38
2022-09-17T02:48:05.851Z,10.46
2022-09-17T02:49:05.048Z,10.39
2022-09-17T02:50:05.029Z,10.42
2022-09-17T02:51:05.023Z,10.42
2022-09-17T02:52:05.021Z,10.42
2022-09-17T02:53:06.538Z,10.54
2022-09-17T02:54:05.005Z,10.58
2022-09-17T02:55:05.003Z,10.58
2022-09-17T02:56:04.989Z,10.54
2022-09-17T02:57:05.008Z,10.62
2022-09-17T02:58:04.986Z,10.60
2022-09-17T02:59:04.984Z,10.58
2022-09-17T03:00:04.965Z,10.61
2022-09-17T03:01:05.023Z,10.72
2022-09-17T03:02:05.001Z,10.70
2022-09-17T03:03:05.698Z,10.67
2022-09-17T03:04:05.054Z,10.80
2022-09-17T03:05:04.927Z,10.78
2022-09-17T03:06:04.920Z,10.76
2022-09-17T03:07:04.916Z,10.75
2022-09-17T03:08:04.900Z,10.73
2022-09-17T03:09:05.507Z,10.91
2022-09-17T03:10:04.884Z,10.93
2022-09-17T03:11:04.880Z,10.86
2022-09-17T03:12:04.878Z,10.78
2022-09-17T03:13:04.866Z,10.80
2022-09-17T03:14:04.874Z,10.78
2022-09-17T03:15:04.854Z,10.73
2022-09-17T03:16:04.920Z,10.72
2022-09-17T03:17:04.839Z,10.76
2022-09-17T03:18:04.850Z,10.75
2022-09-17T03:19:04.842Z,10.80
2022-09-17T03:20:04.934Z,10.68
2022-09-17T03:21:05.466Z,10.83
2022-09-17T03:22:04.798Z,10.76
2022-09-17T03:23:04.797Z,10.76
2022-09-17T03:24:04.794Z,10.73
2022-09-17T03:25:04.784Z,10.79
2022-09-17T03:26:05.017Z,10.78
2022-09-17T03:27:04.774Z,10.76
2022-09-17T03:28:04.756Z,10.76
2022-09-17T03:29:04.757Z,10.86
2022-09-17T03:30:05.219Z,10.75
2022-09-17T03:31:04.784Z,10.80
2022-09-17T03:32:04.732Z,10.76
2022-09-17T03:33:04.725Z,10.86
2022-09-17T03:34:04.711Z,10.82
2022-09-17T03:35:04.703Z,10.85
2022-09-17T03:36:04.838Z,10.75
2022-09-17T03:37:04.694Z,10.67
2022-09-17T03:38:04.686Z,10.75
2022-09-17T03:39:04.681Z,10.76
2022-09-17T03:40:04.781Z,10.70
2022-09-17T03:41:04.676Z,10.73
2022-09-17T03:42:04.655Z,10.75
2022-09-17T03:43:04.650Z,10.76
2022-09-17T03:44:04.851Z,10.68
2022-09-17T03:45:04.632Z,10.72
2022-09-17T03:46:05.391Z,10.76
2022-09-17T03:47:05.062Z,10.64
2022-09-17T03:48:04.611Z,10.73
2022-09-17T03:49:04.612Z,10.80
2022-09-17T03:50:04.605Z,10.72
2022-09-17T03:51:04.620Z,10.67
2022-09-17T03:52:05.052Z,10.73
2022-09-17T03:53:04.576Z,10.83
2022-09-17T03:54:04.604Z,10.73
2022-09-17T03:55:04.571Z,10.70
2022-09-17T03:56:04.552Z,10.73
2022-09-17T03:57:04.570Z,10.79
2022-09-17T03:58:04.971Z,10.82
2022-09-17T03:59:04.555Z,10.73
2022-09-17T04:00:04.538Z,10.73
2022-09-17T04:01:04.530Z,10.73
2022-09-17T04:02:04.698Z,10.67
2022-09-17T04:03:05.695Z,10.61
2022-09-17T04:04:04.499Z,10.64
2022-09-17T04:05:04.489Z,10.76
2022-09-17T04:06:04.491Z,10.72
2022-09-17T04:07:04.482Z,10.76
2022-09-17T04:08:25.690Z,10.70
2022-09-17T04:09:04.468Z,10.70
2022-09-17T04:10:04.453Z,10.64
2022-09-17T04:11:04.480Z,10.70
2022-09-17T04:12:04.479Z,10.76
2022-09-17T04:13:04.433Z,10.61
2022-09-17T04:14:04.429Z,10.72
2022-09-17T04:15:04.441Z,10.65
2022-09-17T04:16:04.509Z,10.70
2022-09-17T04:17:04.403Z,10.70
2022-09-17T04:18:04.402Z,10.65
2022-09-17T04:19:04.397Z,10.67
2022-09-17T04:20:04.452Z,10.64
2022-09-17T04:21:04.376Z,10.75
2022-09-17T04:22:04.369Z,10.73
2022-09-17T04:23:04.371Z,10.72
2022-09-17T04:24:04.481Z,10.75
2022-09-17T04:25:04.369Z,10.68
2022-09-17T04:26:04.355Z,10.75
2022-09-17T04:27:04.332Z,10.72
2022-09-17T04:28:04.348Z,10.73
2022-09-17T04:29:04.317Z,10.75
2022-09-17T04:30:04.326Z,10.62
2022-09-17T04:31:04.370Z,10.70
2022-09-17T04:32:04.700Z,10.58
2022-09-17T04:33:04.302Z,10.58
2022-09-17T04:34:04.292Z,10.70
2022-09-17T04:35:04.279Z,10.67
2022-09-17T04:36:04.286Z,10.65
2022-09-17T04:37:04.634Z,10.62
2022-09-17T04:38:04.260Z,10.64
2022-09-17T04:39:04.246Z,10.62
2022-09-17T04:40:07.720Z,10.67
2022-09-17T04:41:05.210Z,10.62
2022-09-17T04:42:04.223Z,10.68
2022-09-17T04:43:09.246Z,10.65
2022-09-17T04:44:04.205Z,10.61
2022-09-17T04:45:04.206Z,10.65
2022-09-17T04:46:04.329Z,10.49
2022-09-17T04:47:04.184Z,10.60
2022-09-17T04:48:04.214Z,10.48
2022-09-17T04:49:04.171Z,10.49
2022-09-17T04:50:04.170Z,10.41
2022-09-17T04:51:04.194Z,10.46
2022-09-17T04:52:04.150Z,10.48
2022-09-17T04:53:04.797Z,10.36
2022-09-17T04:54:04.874Z,10.38
2022-09-17T04:55:04.131Z,10.42
2022-09-17T04:56:04.254Z,10.38
2022-09-17T04:57:04.120Z,10.38
2022-09-17T04:58:04.127Z,10.30
2022-09-17T04:59:04.109Z,10.28
2022-09-17T05:00:04.138Z,10.31
2022-09-17T05:01:04.208Z,10.31
2022-09-17T05:02:04.169Z,10.18
2022-09-17T05:03:04.098Z,10.24
2022-09-17T05:04:04.086Z,10.26
2022-09-17T05:05:04.057Z,10.20
2022-09-17T05:06:04.049Z,10.16
2022-09-17T05:07:04.049Z,10.17
2022-09-17T05:08:04.704Z,10.18
2022-09-17T05:09:04.035Z,10.14
2022-09-17T05:10:04.188Z,10.14
2022-09-17T05:11:04.020Z,10.03
2022-09-17T05:12:04.126Z,10.16
2022-09-17T05:13:04.008Z,10.08
2022-09-17T05:14:04.011Z,9.99
2022-09-17T05:15:03.990Z,10.03
2022-09-17T05:16:04.021Z,9.98
2022-09-17T05:17:03.970Z,10.03
2022-09-17T05:18:04.305Z,9.99
2022-09-17T05:19:03.966Z,9.98
2022-09-17T05:20:03.987Z,9.99
2022-09-17T05:21:04.041Z,10.08
2022-09-17T05:22:03.941Z,10.01
2022-09-17T05:23:03.934Z,10.05
2022-09-17T05:24:03.954Z,10.01
2022-09-17T05:25:03.919Z,9.94
2022-09-17T05:26:03.922Z,9.94
2022-09-17T05:27:03.900Z,10.08
2022-09-17T05:28:04.448Z,10.02
2022-09-17T05:29:03.889Z,10.03
2022-09-17T05:30:03.878Z,10.02
2022-09-17T05:31:03.929Z,10.09
2022-09-17T05:32:03.865Z,10.01
2022-09-17T05:33:03.866Z,10.05
2022-09-17T05:34:04.686Z,10.03
2022-09-17T05:35:05.734Z,10.06
2022-09-17T05:36:03.864Z,10.08
2022-09-17T05:37:04.500Z,10.14
2022-09-17T05:38:03.828Z,10.05
2022-09-17T05:39:03.840Z,10.09
2022-09-17T05:40:03.906Z,10.10
2022-09-17T05:41:03.802Z,10.08
2022-09-17T05:42:03.787Z,10.24
2022-09-17T05:43:03.813Z,10.21
2022-09-17T05:44:03.891Z,10.24
2022-09-17T05:45:03.788Z,10.24
2022-09-17T05:46:03.770Z,10.41
2022-09-17T05:47:03.778Z,10.38
2022-09-17T05:48:03.780Z,10.41
2022-09-17T05:49:03.771Z,10.41
2022-09-17T05:50:03.736Z,10.48
2022-09-17T05:51:03.794Z,10.39
2022-09-17T05:52:03.733Z,10.43
2022-09-17T05:53:04.390Z,10.48
2022-09-17T05:54:03.719Z,10.55
2022-09-17T05:55:03.693Z,10.67
2022-09-17T05:56:03.691Z,10.64
2022-09-17T05:57:03.684Z,10.60
2022-09-17T05:58:03.682Z,10.73
2022-09-17T05:59:03.703Z,10.65
2022-09-17T06:00:03.796Z,10.68
2022-09-17T06:01:03.654Z,10.70
2022-09-17T06:02:03.714Z,10.68
2022-09-17T06:03:03.678Z,10.64
2022-09-17T06:04:03.632Z,10.55
2022-09-17T06:05:03.647Z,10.45
2022-09-17T06:06:03.611Z,10.52
2022-09-17T06:07:03.613Z,10.58
2022-09-17T06:08:03.616Z,10.73
2022-09-17T06:09:03.599Z,10.78
2022-09-17T06:10:03.603Z,10.79
2022-09-17T06:11:03.581Z,10.82
2022-09-17T06:12:03.574Z,10.94
2022-09-17T06:13:03.572Z,10.95
2022-09-17T06:14:03.563Z,11.03
2022-09-17T06:15:03.547Z,11.05
2022-09-17T06:16:03.756Z,11.11
2022-09-17T06:17:03.549Z,11.09
2022-09-17T06:18:03.527Z,10.97
2022-09-17T06:19:03.525Z,11.00
2022-09-17T06:20:03.512Z,11.08
2022-09-17T06:21:03.512Z,10.98
2022-09-17T06:22:03.946Z,11.03
2022-09-17T06:23:03.487Z,11.05
2022-09-17T06:24:03.483Z,11.19
2022-09-17T06:25:03.474Z,11.13
2022-09-17T06:26:03.464Z,11.19
2022-09-17T06:27:03.466Z,11.30
2022-09-17T06:28:03.472Z,11.36
2022-09-17T06:29:03.473Z,11.30
2022-09-17T06:30:03.439Z,11.23
2022-09-17T06:31:03.501Z,11.23
2022-09-17T06:32:04.137Z,11.20
2022-09-17T06:33:03.431Z,11.23
2022-09-17T06:34:05.147Z,11.20
2022-09-17T06:35:03.408Z,11.22
2022-09-17T06:36:03.404Z,11.25
2022-09-17T06:37:03.424Z,11.22
2022-09-17T06:38:03.389Z,11.25
2022-09-17T06:39:03.386Z,11.46
2022-09-17T06:40:03.431Z,11.88
2022-09-17T06:41:03.445Z,12.15
2022-09-17T06:42:03.400Z,12.14
2022-09-17T06:43:03.813Z,12.29
2022-09-17T06:44:03.337Z,12.69
2022-09-17T06:45:08.591Z,12.80
2022-09-17T06:46:04.335Z,13.42
2022-09-17T06:47:03.337Z,14.01
2022-09-17T06:48:03.442Z,14.67
2022-09-17T06:49:03.321Z,14.55
2022-09-17T06:50:03.301Z,14.44
2022-09-17T06:51:03.303Z,14.52
2022-09-17T06:52:03.427Z,14.78
2022-09-17T06:53:03.286Z,14.73
2022-09-17T06:54:03.279Z,14.53
2022-09-17T06:55:03.277Z,14.18
2022-09-17T06:56:06.499Z,14.00
2022-09-17T06:57:03.254Z,13.88
2022-09-17T06:58:03.255Z,14.31
2022-09-17T06:59:03.248Z,14.85
2022-09-17T07:00:03.229Z,15.40
2022-09-17T07:01:03.294Z,15.43
2022-09-17T07:02:03.303Z,15.60
2022-09-17T07:03:03.220Z,16.13
2022-09-17T07:04:03.330Z,16.67
2022-09-17T07:05:03.197Z,17.14
2022-09-17T07:06:03.188Z,17.25
2022-09-17T07:07:03.189Z,17.69
2022-09-17T07:08:03.192Z,17.97
2022-09-17T07:09:03.192Z,18.31
2022-09-17T07:10:03.162Z,18.36
2022-09-17T07:11:03.151Z,17.66
2022-09-17T07:12:03.784Z,17.54
2022-09-17T07:13:03.137Z,17.31
2022-09-17T07:14:03.128Z,17.31
2022-09-17T07:15:03.176Z,17.35
2022-09-17T07:16:03.207Z,17.35
2022-09-17T07:17:03.106Z,17.02
2022-09-17T07:18:03.108Z,17.01
2022-09-17T07:19:03.097Z,16.77
2022-09-17T07:20:03.220Z,16.49
2022-09-17T07:21:03.464Z,16.24
2022-09-17T07:22:03.095Z,16.00
2022-09-17T07:23:03.074Z,15.85
2022-09-17T07:24:03.060Z,15.58
2022-09-17T07:25:03.053Z,15.29
2022-09-17T07:26:03.055Z,14.82
2022-09-17T07:27:03.038Z,14.51
2022-09-17T07:28:03.274Z,14.48
2022-09-17T07:29:03.033Z,14.38
2022-09-17T07:30:03.027Z,14.34
2022-09-17T07:31:03.073Z,14.61
2022-09-17T07:32:03.044Z,15.07
2022-09-17T07:33:03.015Z,15.59
2022-09-17T07:34:03.005Z,15.93
2022-09-17T07:35:03.002Z,15.59
2022-09-17T07:36:03.097Z,15.65
2022-09-17T07:37:02.971Z,15.62
2022-09-17T07:38:02.972Z,15.41
2022-09-17T07:39:02.954Z,14.99
2022-09-17T07:40:03.117Z,14.86
2022-09-17T07:41:02.948Z,14.73
2022-09-17T07:42:02.958Z,14.55
2022-09-17T07:43:02.995Z,14.45
2022-09-17T07:44:02.927Z,14.13
2022-09-17T07:45:02.916Z,14.08
2022-09-17T07:46:03.027Z,14.01
2022-09-17T07:47:02.951Z,13.88
2022-09-17T07:48:02.910Z,13.85
2022-09-17T07:49:02.881Z,13.96
2022-09-17T07:50:02.907Z,13.96
2022-09-17T07:51:02.895Z,14.31
2022-09-17T07:52:02.994Z,14.82
2022-09-17T07:53:02.859Z,15.80
2022-09-17T07:54:04.088Z,16.34
2022-09-17T07:55:03.313Z,16.99
2022-09-17T07:56:02.840Z,17.75
2022-09-17T07:57:02.883Z,17.84
2022-09-17T07:58:02.841Z,17.97
2022-09-17T07:59:02.831Z,18.31
2022-09-17T08:00:02.815Z,18.31
2022-09-17T08:01:02.803Z,18.48
2022-09-17T08:02:02.926Z,18.85
2022-09-17T08:03:09.915Z,19.16
2022-09-17T08:04:02.796Z,19.27
2022-09-17T08:05:02.828Z,19.34
2022-09-17T08:06:02.772Z,19.38
2022-09-17T08:07:02.770Z,19.34
2022-09-17T08:08:02.982Z,19.00
2022-09-17T08:09:02.752Z,18.97
2022-09-17T08:10:02.746Z,19.08
2022-09-17T08:11:02.762Z,19.00
2022-09-17T08:12:03.207Z,19.01
2022-09-17T08:13:02.718Z,19.49
2022-09-17T08:14:02.715Z,19.39
2022-09-17T08:15:02.723Z,19.15
2022-09-17T08:16:02.794Z,19.08
2022-09-17T08:17:04.920Z,18.76
2022-09-17T08:18:02.699Z,18.43
2022-09-17T08:19:02.685Z,18.26
2022-09-17T08:20:02.677Z,18.06
2022-09-17T08:21:02.669Z,17.83
2022-09-17T08:22:02.752Z,17.69
2022-09-17T08:23:02.653Z,17.46
2022-09-17T08:24:02.769Z,16.99
2022-09-17T08:25:02.750Z,16.69
2022-09-17T08:26:02.677Z,16.51
2022-09-17T08:27:02.660Z,16.49
2022-09-17T08:28:02.618Z,16.46
2022-09-17T08:29:02.672Z,16.32
2022-09-17T08:30:02.615Z,16.16
2022-09-17T08:31:02.734Z,16.26
2022-09-17T08:32:02.698Z,16.32
2022-09-17T08:33:02.593Z,16.33
2022-09-17T08:34:02.577Z,16.57
2022-09-17T08:35:02.635Z,16.95
2022-09-17T08:36:03.456Z,16.92
2022-09-17T08:37:02.580Z,16.92
2022-09-17T08:38:02.555Z,16.92
2022-09-17T08:39:02.546Z,16.99
2022-09-17T08:40:02.735Z,17.01
2022-09-17T08:41:02.529Z,16.99
2022-09-17T08:42:02.585Z,16.83
2022-09-17T08:43:02.515Z,16.72
2022-09-17T08:44:02.531Z,16.70
2022-09-17T08:45:02.498Z,16.88
2022-09-17T08:46:02.503Z,17.72
2022-09-17T08:47:02.532Z,18.08
2022-09-17T08:48:02.560Z,17.86
2022-09-17T08:49:02.494Z,17.75
2022-09-17T08:50:03.076Z,17.73
2022-09-17T08:51:05.377Z,17.59
2022-09-17T08:52:03.443Z,17.37
2022-09-17T08:53:02.454Z,17.30
2022-09-17T08:54:02.459Z,17.43
2022-09-17T08:55:02.501Z,17.39
2022-09-17T08:56:02.586Z,17.50
2022-09-17T08:57:02.413Z,18.02
2022-09-17T08:58:02.533Z,18.01
2022-09-17T08:59:02.402Z,18.52
2022-09-17T09:00:02.407Z,18.98
2022-09-17T09:01:02.416Z,19.45
2022-09-17T09:02:02.481Z,19.82
2022-09-17T09:03:02.426Z,20.32
2022-09-17T09:04:02.405Z,20.71
2022-09-17T09:05:02.380Z,20.29
2022-09-17T09:06:05.274Z,20.05
2022-09-17T09:07:03.347Z,19.70
2022-09-17T09:08:02.342Z,19.41
2022-09-17T09:09:02.333Z,19.08
2022-09-17T09:10:02.486Z,18.79
2022-09-17T09:11:02.328Z,18.49
2022-09-17T09:12:02.432Z,18.28
2022-09-17T09:13:02.318Z,18.05
2022-09-17T09:14:02.360Z,17.94
2022-09-17T09:15:02.299Z,18.01
2022-09-17T09:16:02.429Z,17.79
2022-09-17T09:17:02.277Z,18.03
2022-09-17T09:18:02.280Z,17.88
2022-09-17T09:19:02.871Z,17.99
2022-09-17T09:20:02.322Z,18.02
2022-09-17T09:21:02.277Z,17.75
2022-09-17T09:22:02.246Z,17.66
2022-09-17T09:23:02.260Z,17.66
2022-09-17T09:24:02.230Z,17.52
2022-09-17T09:25:02.247Z,17.57
2022-09-17T09:26:02.225Z,17.45
2022-09-17T09:27:02.249Z,17.25
2022-09-17T09:28:02.339Z,16.98
2022-09-17T09:29:02.195Z,16.76
2022-09-17T09:30:02.664Z,16.62
2022-09-17T09:31:02.255Z,16.47
2022-09-17T09:32:02.169Z,16.22
2022-09-17T09:33:02.207Z,16.24
2022-09-17T09:34:02.226Z,16.16
2022-09-17T09:35:02.166Z,16.14
2022-09-17T09:36:02.146Z,16.97
2022-09-17T09:37:02.158Z,17.78
2022-09-17T09:38:02.136Z,18.52
2022-09-17T09:39:02.178Z,19.38
2022-09-17T09:40:02.213Z,20.05
2022-09-17T09:41:02.627Z,20.52
2022-09-17T09:42:02.107Z,20.93
2022-09-17T09:43:02.110Z,21.32
2022-09-17T09:44:04.824Z,21.90
2022-09-17T09:45:05.105Z,22.07
2022-09-17T09:46:02.073Z,22.51
2022-09-17T09:47:02.207Z,23.25
2022-09-17T09:48:02.095Z,22.86
2022-09-17T09:49:02.063Z,23.41
2022-09-17T09:50:02.057Z,23.54
2022-09-17T09:51:06.491Z,23.04
2022-09-17T09:52:02.026Z,22.30
2022-09-17T09:53:02.603Z,21.67
2022-09-17T09:54:02.019Z,21.01
2022-09-17T09:55:02.031Z,20.39
2022-09-17T09:56:02.003Z,20.00
2022-09-17T09:57:02.068Z,19.64
2022-09-17T09:58:02.006Z,20.61
2022-09-17T09:59:02.276Z,21.01
2022-09-17T10:00:02.156Z,20.89
2022-09-17T10:01:02.060Z,22.23
2022-09-17T10:02:02.184Z,22.27
2022-09-17T10:03:02.029Z,21.71
2022-09-17T10:04:01.969Z,21.58
2022-09-17T10:05:01.948Z,21.11
2022-09-17T10:06:01.945Z,20.77
2022-09-17T10:07:01.951Z,20.18
2022-09-17T10:08:02.092Z,19.54
2022-09-17T10:09:01.935Z,19.08
2022-09-17T10:10:02.007Z,18.86
2022-09-17T10:11:01.926Z,18.66
2022-09-17T10:12:01.893Z,19.12
2022-09-17T10:13:02.447Z,20.49
2022-09-17T10:14:01.882Z,20.93
2022-09-17T10:15:01.913Z,21.82
2022-09-17T10:16:02.128Z,22.67
2022-09-17T10:17:01.862Z,22.01
2022-09-17T10:18:01.860Z,21.53
2022-09-17T10:19:01.893Z,20.82
2022-09-17T10:20:01.849Z,20.26
2022-09-17T10:21:01.880Z,19.41
2022-09-17T10:22:01.826Z,19.07
2022-09-17T10:23:01.881Z,19.60
2022-09-17T10:24:01.856Z,19.92
2022-09-17T10:25:01.812Z,19.74
2022-09-17T10:26:01.801Z,19.56
2022-09-17T10:27:01.832Z,19.20
2022-09-17T10:28:02.347Z,18.94
2022-09-17T10:29:01.800Z,18.56
2022-09-17T10:30:01.773Z,18.11
2022-09-17T10:31:06.345Z,17.54
2022-09-17T10:32:02.870Z,16.88
2022-09-17T10:33:02.147Z,16.42
2022-09-17T10:34:01.734Z,16.33
2022-09-17T10:35:01.732Z,16.18
2022-09-17T10:36:01.735Z,16.80
2022-09-17T10:37:01.714Z,17.52
2022-09-17T10:38:01.711Z,18.09
2022-09-17T10:39:01.876Z,18.58
2022-09-17T10:40:01.725Z,18.96
2022-09-17T10:41:01.686Z,19.35
2022-09-17T10:42:01.689Z,19.89
2022-09-17T10:43:01.719Z,20.22
2022-09-17T10:44:01.666Z,20.50
2022-09-17T10:45:02.229Z,20.77
2022-09-17T10:46:01.652Z,21.05
2022-09-17T10:47:01.697Z,21.43
2022-09-17T10:48:01.768Z,21.74
2022-09-17T10:49:01.812Z,22.01
2022-09-17T10:50:01.666Z,22.44
2022-09-17T10:51:02.402Z,22.64
2022-09-17T10:52:01.647Z,22.89
2022-09-17T10:53:02.619Z,23.34
2022-09-17T10:54:01.604Z,23.55
2022-09-17T10:55:01.631Z,23.81
2022-09-17T10:56:01.615Z,23.69
2022-09-17T10:57:01.602Z,23.41
2022-09-17T10:58:01.582Z,22.93
2022-09-17T10:59:01.591Z,22.49
2022-09-17T11:00:02.598Z,22.04
2022-09-17T11:01:01.557Z,21.55
2022-09-17T11:02:01.643Z,21.25
2022-09-17T11:03:02.171Z,20.97
2022-09-17T11:04:01.664Z,20.79
2022-09-17T11:05:01.577Z,21.48
2022-09-17T11:06:01.533Z,21.71
2022-09-17T11:07:01.534Z,21.65
2022-09-17T11:08:01.524Z,21.26
2022-09-17T11:09:01.551Z,21.66
2022-09-17T11:10:01.511Z,22.03
2022-09-17T11:11:01.513Z,22.41
2022-09-17T11:12:01.516Z,23.01
2022-09-17T11:13:01.480Z,23.69
2022-09-17T11:14:02.563Z,24.47
2022-09-17T11:15:01.554Z,24.89
2022-09-17T11:16:02.139Z,24.38
2022-09-17T11:17:01.462Z,23.74
2022-09-17T11:18:01.664Z,22.61
2022-09-17T11:19:01.457Z,21.88
2022-09-17T11:20:01.564Z,21.40
2022-09-17T11:21:01.431Z,20.41
2022-09-17T11:22:01.668Z,19.57
2022-09-17T11:23:01.430Z,19.08
2022-09-17T11:24:01.411Z,18.78
2022-09-17T11:25:01.995Z,18.46
2022-09-17T11:26:01.454Z,18.43
2022-09-17T11:27:01.391Z,18.41
2022-09-17T11:28:01.423Z,18.81
2022-09-17T11:29:01.470Z,20.25
2022-09-17T11:30:01.385Z,20.88
2022-09-17T11:31:01.426Z,21.74
2022-09-17T11:32:01.420Z,22.55
2022-09-17T11:33:01.346Z,23.06
2022-09-17T11:34:01.376Z,23.36
2022-09-17T11:35:01.902Z,23.51
2022-09-17T11:36:02.083Z,24.16
2022-09-17T11:37:01.328Z,24.78
2022-09-17T11:38:01.348Z,24.86
2022-09-17T11:39:01.306Z,24.56
2022-09-17T11:40:01.351Z,25.06
2022-09-17T11:41:01.306Z,25.89
2022-09-17T11:42:01.332Z,25.14
2022-09-17T11:43:01.285Z,24.36
2022-09-17T11:44:01.383Z,23.51
2022-09-17T11:45:01.267Z,22.70
2022-09-17T11:46:01.262Z,23.31
2022-09-17T11:47:01.333Z,23.85
2022-09-17T11:48:01.269Z,24.71
2022-09-17T11:49:01.247Z,25.45
2022-09-17T11:50:01.246Z,25.48
2022-09-17T11:51:01.226Z,25.86
2022-09-17T11:52:01.358Z,26.26
2022-09-17T11:53:01.231Z,26.95
2022-09-17T11:54:01.210Z,27.40
2022-09-17T11:55:01.208Z,27.78
2022-09-17T11:56:01.211Z,27.97
2022-09-17T11:57:01.243Z,28.20
2022-09-17T11:58:01.205Z,28.34
2022-09-17T11:59:01.369Z,28.01
2022-09-17T12:00:01.185Z,28.68
2022-09-17T12:01:01.169Z,28.61
2022-09-17T12:02:01.233Z,28.59
2022-09-17T12:03:01.262Z,28.31
2022-09-17T12:04:01.153Z,26.19
2022-09-17T12:05:01.130Z,24.76
2022-09-17T12:06:01.125Z,23.60
2022-09-17T12:07:01.136Z,22.76
2022-09-17T12:08:01.149Z,22.13
2022-09-17T12:09:01.125Z,21.59
2022-09-17T12:10:01.111Z,21.18
2022-09-17T12:11:02.381Z,20.75
2022-09-17T12:12:01.097Z,20.42
2022-09-17T12:13:01.079Z,20.22
2022-09-17T12:14:01.153Z,20.26
2022-09-17T12:15:01.068Z,20.26
2022-09-17T12:16:01.067Z,20.33
2022-09-17T12:17:01.092Z,20.67
2022-09-17T12:18:27.650Z,21.30
2022-09-17T12:19:02.029Z,22.43
2022-09-17T12:20:01.028Z,23.42
2022-09-17T12:21:01.033Z,24.47
2022-09-17T12:22:01.036Z,25.56
2022-09-17T12:23:01.008Z,26.46
2022-09-17T12:24:01.152Z,27.26
2022-09-17T12:25:01.042Z,28.01
2022-09-17T12:26:00.985Z,28.80
2022-09-17T12:27:01.629Z,29.33
2022-09-17T12:28:00.968Z,29.56
2022-09-17T12:29:01.155Z,30.08
2022-09-17T12:30:01.029Z,30.32
2022-09-17T12:31:00.998Z,30.39
2022-09-17T12:32:00.958Z,30.48
2022-09-17T12:33:00.945Z,29.31
2022-09-17T12:34:00.922Z,28.19
2022-09-17T12:35:00.953Z,28.09
2022-09-17T12:36:04.460Z,27.90
2022-09-17T12:37:00.908Z,27.30
2022-09-17T12:38:00.914Z,26.73
2022-09-17T12:39:03.282Z,27.07
2022-09-17T12:40:01.076Z,26.15
2022-09-17T12:41:00.881Z,24.74
2022-09-17T12:42:00.879Z,23.84
2022-09-17T12:43:02.223Z,23.13
2022-09-17T12:44:01.050Z,22.68
2022-09-17T12:45:00.862Z,22.22
2022-09-17T12:46:00.874Z,22.22
2022-09-17T12:47:00.964Z,21.94
2022-09-17T12:48:00.839Z,21.56
2022-09-17T12:49:01.070Z,21.19
2022-09-17T12:50:00.823Z,20.23
2022-09-17T12:51:00.815Z,19.41
2022-09-17T12:52:00.853Z,19.78